Time;durP1;ratioP1;P1;durP2;ratioP2;P2;SDS_P1;SDS_P2;PMS_P1;PMS_P2;Temp;Humidity;BMP_temperature;BMP_pressure;BME280_temperature;BME280_humidity;BME280_pressure;Samples;Min_cycle;Max_cycle;Signal;HPM_P1;HPM_P2
2023/05/17 00:07:29;;;;;;;7.82;1.88;;;9.10;24.20;;;;;;20656735;28;20068;-43
2023/05/17 00:17:30;;;;;;;4.38;2.03;;;8.90;21.10;;;;;;20649782;28;20048;-43
2023/05/17 00:27:31;;;;;;;7.63;2.50;;;8.80;24.10;;;;;;20650900;28;20041;-43
2023/05/17 00:37:33;;;;;;;12.50;3.15;;;8.70;25.80;;;;;;20648083;28;20045;-43
2023/05/17 00:47:34;;;;;;;5.57;1.80;;;8.70;25.40;;;;;;20652795;28;20034;-43
2023/05/17 00:57:35;;;;;;;4.50;1.55;;;8.70;27.80;;;;;;20647651;28;20053;-43
2023/05/17 01:07:36;;;;;;;5.13;2.05;;;8.70;35.70;;;;;;20644952;28;20044;-43
2023/05/17 01:17:46;;;;;;;9.57;3.05;;;8.70;46.40;;;;;;20641506;28;20045;-43
2023/05/17 01:27:49;;;;;;;6.70;2.15;;;8.90;65.70;;;;;;20653021;28;20552;-44
2023/05/17 01:37:53;;;;;;;6.70;2.00;;;9.10;82.70;;;;;;20640788;28;20050;-44
2023/05/17 01:48:22;;;;;;;5.82;2.55;;;9.10;90.40;;;;;;20647496;28;20049;-43
2023/05/17 01:58:25;;;;;;;6.30;2.80;;;9.20;90.20;;;;;;20640598;28;20033;-43
2023/05/17 02:08:26;;;;;;;4.85;2.13;;;9.30;87.90;;;;;;20639851;28;20026;-44
2023/05/17 02:18:27;;;;;;;6.13;2.13;;;9.30;90.40;;;;;;20626640;28;20056;-43
2023/05/17 02:28:28;;;;;;;8.23;2.22;;;9.20;86.40;;;;;;20646900;28;20954;-43
2023/05/17 02:38:30;;;;;;;7.75;2.03;;;9.10;74.80;;;;;;20628936;28;20117;-43
2023/05/17 02:48:31;;;;;;;6.28;2.53;;;9.00;68.00;;;;;;20645305;28;20033;-43
2023/05/17 02:58:33;;;;;;;6.03;2.10;;;9.00;75.80;;;;;;20648712;28;20429;-44
2023/05/17 03:08:34;;;;;;;4.25;2.40;;;9.00;83.00;;;;;;20648307;28;20041;-43
2023/05/17 03:18:35;;;;;;;5.75;2.08;;;9.00;91.90;;;;;;20660504;28;20025;-44
2023/05/17 03:28:38;;;;;;;11.55;2.92;;;9.00;95.30;;;;;;20650067;28;20521;-43
2023/05/17 03:38:39;;;;;;;6.95;2.10;;;9.20;99.90;;;;;;20655119;28;20378;-44
2023/05/17 03:49:00;;;;;;;7.25;1.70;;;9.30;99.90;;;;;;20621101;28;20037;-43
2023/05/17 03:59:15;;;;;;;6.90;2.15;;;9.20;98.10;;;;;;20647859;28;20034;-44
2023/05/17 04:09:16;;;;;;;3.63;1.38;;;9.20;90.70;;;;;;20626667;28;20459;-44
2023/05/17 04:19:17;;;;;;;7.75;1.38;;;9.10;77.20;;;;;;20675466;28;20034;-44
2023/05/17 04:29:39;;;;;;;4.57;1.58;;;9.00;68.50;;;;;;20689670;28;20128;-43
2023/05/17 04:39:43;;;;;;;4.22;1.20;;;8.90;62.80;;;;;;20636990;28;20033;-44
2023/05/17 04:49:44;;;;;;;6.18;1.48;;;8.80;54.50;;;;;;20628627;28;20044;-44
2023/05/17 04:59:45;;;;;;;10.98;1.67;;;9.00;62.20;;;;;;20639314;28;20045;-44
2023/05/17 05:09:46;;;;;;;6.63;1.40;;;9.10;50.50;;;;;;20639228;28;20042;-44
2023/05/17 05:19:47;;;;;;;9.38;2.42;;;9.20;50.10;;;;;;20642018;28;20453;-43
2023/05/17 05:29:49;;;;;;;7.07;1.48;;;9.20;54.30;;;;;;20632399;28;20117;-44
2023/05/17 05:40:11;;;;;;;4.18;1.55;;;9.50;56.40;;;;;;20645534;28;20563;-44
2023/05/17 05:50:12;;;;;;;6.15;1.73;;;9.90;47.70;;;;;;20649666;28;20046;-44
2023/05/17 06:00:16;;;;;;;12.90;3.45;;;10.40;27.10;;;;;;20624024;28;20575;-44
2023/05/17 06:10:20;;;;;;;10.18;1.73;;;10.80;5.00;;;;;;20644581;28;20138;-42
2023/05/17 06:20:22;;;;;;;11.10;1.95;;;11.10;1.00;;;;;;20650120;28;20030;-42
2023/05/17 06:30:26;;;;;;;7.80;1.35;;;11.30;1.00;;;;;;20634836;28;20045;-43
2023/05/17 06:40:45;;;;;;;6.40;1.88;;;11.50;1.00;;;;;;20631276;28;20903;-43
2023/05/17 06:50:46;;;;;;;5.43;1.70;;;11.70;1.00;;;;;;20638654;28;20065;-42
2023/05/17 07:00:47;;;;;;;4.88;0.90;;;11.70;1.00;;;;;;20646565;28;20044;-43
2023/05/17 07:10:51;;;;;;;8.88;1.98;;;11.80;1.00;;;;;;20646924;28;20820;-42
2023/05/17 07:20:53;;;;;;;4.78;1.17;;;11.90;1.00;;;;;;20650197;28;20027;-44
2023/05/17 07:30:54;;;;;;;7.97;1.17;;;11.90;1.00;;;;;;20633493;28;20449;-42
2023/05/17 07:40:56;;;;;;;7.20;1.48;;;11.80;1.00;;;;;;20632246;28;20559;-43
2023/05/17 07:50:57;;;;;;;3.83;0.60;;;11.80;1.00;;;;;;20658642;28;20038;-42
2023/05/17 08:00:58;;;;;;;5.40;0.88;;;11.90;1.00;;;;;;20656644;28;20038;-43
2023/05/17 08:10:59;;;;;;;8.25;1.63;;;12.00;1.00;;;;;;20640487;28;20038;-43
2023/05/17 08:21:00;;;;;;;2.47;0.50;;;12.10;1.00;;;;;;20652217;28;20049;-43
2023/05/17 08:31:02;;;;;;;3.17;0.57;;;12.20;1.00;;;;;;20637468;28;20039;-42
2023/05/17 08:41:04;;;;;;;4.72;0.95;;;12.40;1.00;;;;;;20648266;28;20045;-42
2023/05/17 08:51:06;;;;;;;3.42;0.70;;;12.40;1.00;;;;;;20611762;28;20132;-43
2023/05/17 09:01:08;;;;;;;5.55;1.70;;;12.80;1.00;;;;;;20640063;28;20041;-42
2023/05/17 09:11:09;;;;;;;6.88;1.90;;;13.20;1.00;;;;;;20627647;28;20050;-42
2023/05/17 09:21:26;;;;;;;2.70;0.73;;;13.00;1.00;;;;;;20666148;28;20402;-42
2023/05/17 09:31:27;;;;;;;4.03;1.17;;;13.30;1.00;;;;;;20637739;28;20050;-42
2023/05/17 09:41:33;;;;;;;9.40;1.42;;;13.60;1.00;;;;;;20658403;28;20541;-42
2023/05/17 09:51:48;;;;;;;1.92;0.70;;;13.80;1.00;;;;;;20656561;28;20081;-42
2023/05/17 10:01:50;;;;;;;3.67;0.90;;;14.00;1.00;;;;;;20643208;28;20030;-42
2023/05/17 10:11:55;;;;;;;1.58;0.65;;;14.20;1.00;;;;;;20637397;28;20351;-42
2023/05/17 10:22:16;;;;;;;3.50;0.88;;;14.40;1.00;;;;;;20655477;28;20129;-42
2023/05/17 10:32:38;;;;;;;4.15;1.02;;;14.50;1.00;;;;;;20660732;28;20133;-42
2023/05/17 10:42:46;;;;;;;3.10;1.00;;;14.80;1.00;;;;;;20645672;28;20541;-41
2023/05/17 10:52:49;;;;;;;2.58;1.10;;;15.00;1.00;;;;;;20645558;28;20325;-42
2023/05/17 11:02:50;;;;;;;3.55;0.40;;;15.10;1.00;;;;;;20618532;28;20038;-41
2023/05/17 11:12:54;;;;;;;4.10;1.20;;;15.30;1.00;;;;;;20621021;28;20050;-42
2023/05/17 11:22:59;;;;;;;6.85;1.08;;;15.30;1.00;;;;;;20668315;28;20401;-42
2023/05/17 11:33:45;;;;;;;4.80;0.93;;;15.40;1.00;;;;;;20635587;28;20384;-42
2023/05/17 11:43:47;;;;;;;7.53;0.70;;;15.70;1.00;;;;;;20653133;28;20472;-41
2023/05/17 11:53:49;;;;;;;5.13;0.82;;;15.90;1.00;;;;;;20655049;28;20038;-41
2023/05/17 12:04:00;;;;;;;8.05;1.27;;;16.10;1.00;;;;;;20655296;28;20045;-39
2023/05/17 12:14:01;;;;;;;2.72;1.05;;;16.00;1.00;;;;;;20655104;28;20332;-39
2023/05/17 12:24:03;;;;;;;5.63;1.42;;;15.90;1.00;;;;;;20651573;28;20040;-40
2023/05/17 12:34:05;;;;;;;8.75;0.95;;;16.20;1.00;;;;;;20649439;28;20146;-40
2023/05/17 12:44:07;;;;;;;2.72;0.85;;;16.30;1.00;;;;;;20651782;28;20507;-40
2023/05/17 12:54:09;;;;;;;5.50;1.60;;;16.20;1.00;;;;;;20659645;28;20056;-40
2023/05/17 13:04:11;;;;;;;4.75;0.88;;;16.10;1.00;;;;;;20657152;28;20037;-40
2023/05/17 13:14:12;;;;;;;4.38;1.10;;;16.30;1.00;;;;;;20657632;28;20045;-40
2023/05/17 13:24:14;;;;;;;8.05;1.23;;;16.70;1.00;;;;;;20678853;28;20034;-40
2023/05/17 13:34:15;;;;;;;2.88;0.70;;;16.90;1.00;;;;;;20654464;28;20418;-40
2023/05/17 13:44:16;;;;;;;3.72;1.17;;;17.00;1.00;;;;;;20656059;28;20127;-40
2023/05/17 13:54:19;;;;;;;6.05;1.33;;;16.70;1.00;;;;;;20645882;28;20050;-40
2023/05/17 14:04:20;;;;;;;4.95;1.08;;;16.30;1.00;;;;;;20660298;28;20046;-39
2023/05/17 14:14:24;;;;;;;7.82;1.63;;;16.00;1.00;;;;;;20650082;28;20521;-40
2023/05/17 14:24:45;;;;;;;3.92;0.93;;;16.10;1.00;;;;;;20627737;28;20498;-40
2023/05/17 14:35:08;;;;;;;5.38;0.90;;;15.90;1.00;;;;;;20631090;28;20266;-40
2023/05/17 14:45:10;;;;;;;3.58;0.90;;;15.50;1.00;;;;;;20637914;28;20133;-40
2023/05/17 14:55:11;;;;;;;5.18;1.30;;;15.50;1.00;;;;;;20673450;28;21274;-40
2023/05/17 15:05:32;;;;;;;8.45;1.20;;;15.50;1.00;;;;;;20639348;28;20121;-40
2023/05/17 15:15:33;;;;;;;1.95;0.70;;;15.40;1.00;;;;;;20655074;28;20045;-39
2023/05/17 15:25:35;;;;;;;3.10;0.93;;;15.30;1.00;;;;;;20644496;28;20035;-39
2023/05/17 15:35:40;;;;;;;6.45;1.50;;;15.10;1.00;;;;;;20640411;28;20064;-40
2023/05/17 15:45:41;;;;;;;5.20;0.85;;;15.00;1.00;;;;;;20636948;28;20034;-39
2023/05/17 15:55:42;;;;;;;4.38;1.35;;;14.80;1.00;;;;;;20641092;28;20065;-40
2023/05/17 16:05:43;;;;;;;4.78;1.58;;;14.70;1.00;;;;;;20643602;28;20034;-40
2023/05/17 16:15:44;;;;;;;7.88;1.20;;;14.60;1.00;;;;;;20650422;28;20046;-40
2023/05/17 16:25:45;;;;;;;5.07;2.33;;;14.50;1.00;;;;;;20648464;28;20045;-40
2023/05/17 16:35:50;;;;;;;4.60;1.30;;;14.30;1.00;;;;;;20636826;28;20514;-40
2023/05/17 16:45:51;;;;;;;6.78;1.30;;;14.10;1.00;;;;;;20643332;28;20092;-40
2023/05/17 16:55:53;;;;;;;7.53;2.35;;;13.90;1.00;;;;;;20639104;28;20058;-40
2023/05/17 17:05:54;;;;;;;5.50;1.27;;;13.60;1.00;;;;;;20647183;28;20049;-40
2023/05/17 17:15:55;;;;;;;5.78;1.25;;;13.60;1.00;;;;;;20649746;28;20049;-40
2023/05/17 17:25:56;;;;;;;8.07;0.98;;;13.30;1.00;;;;;;20648980;28;20049;-39
2023/05/17 17:35:57;;;;;;;2.72;1.27;;;13.20;1.00;;;;;;20641922;28;20325;-40
2023/05/17 17:45:58;;;;;;;8.02;1.38;;;13.00;1.00;;;;;;20648308;28;20501;-40
2023/05/17 17:55:59;;;;;;;3.85;0.70;;;12.90;1.00;;;;;;20641762;28;20053;-40
2023/05/17 18:06:01;;;;;;;8.93;1.38;;;12.70;1.00;;;;;;20599492;28;20041;-40
2023/05/17 18:16:02;;;;;;;2.92;0.70;;;12.60;1.00;;;;;;20634983;28;20045;-40
2023/05/17 18:26:04;;;;;;;3.40;0.98;;;12.50;1.00;;;;;;20632317;28;20037;-40
2023/05/17 18:36:05;;;;;;;3.45;0.60;;;12.30;1.00;;;;;;20634736;28;20054;-40
2023/05/17 18:46:06;;;;;;;2.88;0.60;;;12.20;1.00;;;;;;20638786;28;20252;-40
2023/05/17 18:56:07;;;;;;;3.20;1.05;;;12.00;1.00;;;;;;20637930;28;20459;-40
2023/05/17 19:06:08;;;;;;;2.83;1.00;;;11.90;1.00;;;;;;20641012;28;20053;-39
2023/05/17 19:16:09;;;;;;;2.88;0.68;;;11.70;1.00;;;;;;20635685;28;20096;-40
2023/05/17 19:26:10;;;;;;;3.15;1.02;;;11.60;1.00;;;;;;20633987;28;20042;-40
2023/05/17 19:36:12;;;;;;;4.28;0.98;;;11.40;1.00;;;;;;20637346;28;20046;-41
2023/05/17 19:46:13;;;;;;;1.40;0.68;;;11.20;1.00;;;;;;20650253;28;20029;-40
2023/05/17 19:56:14;;;;;;;5.53;0.95;;;11.10;1.00;;;;;;20656211;28;20046;-40
2023/05/17 20:06:15;;;;;;;4.70;0.82;;;11.00;1.00;;;;;;20659044;28;20048;-40
2023/05/17 20:16:16;;;;;;;2.88;0.85;;;10.80;1.00;;;;;;20648393;28;20046;-42
2023/05/17 20:26:24;;;;;;;3.58;0.63;;;10.70;1.00;;;;;;20646559;28;20061;-40
2023/05/17 20:36:25;;;;;;;5.18;0.77;;;10.60;1.00;;;;;;20645652;28;20046;-40
2023/05/17 20:46:28;;;;;;;4.32;0.80;;;10.60;1.00;;;;;;20649252;28;21107;-40
2023/05/17 20:56:29;;;;;;;4.18;0.80;;;10.40;1.00;;;;;;20664237;28;20629;-40
2023/05/17 21:06:31;;;;;;;3.63;1.08;;;10.30;1.00;;;;;;20664736;28;20507;-40
2023/05/17 21:16:34;;;;;;;3.80;1.20;;;10.30;1.00;;;;;;20661795;28;20034;-40
2023/05/17 21:26:35;;;;;;;2.60;1.25;;;10.20;1.00;;;;;;20658120;28;20034;-40
2023/05/17 21:36:36;;;;;;;2.25;0.80;;;10.10;1.00;;;;;;20660465;28;20659;-41
2023/05/17 21:46:37;;;;;;;5.68;0.95;;;10.00;1.00;;;;;;20660531;28;20041;-41
2023/05/17 21:56:38;;;;;;;6.45;1.50;;;9.80;1.00;;;;;;20659344;28;20046;-40
2023/05/17 22:06:39;;;;;;;4.30;0.80;;;9.70;1.00;;;;;;20656821;28;20145;-41
2023/05/17 22:16:40;;;;;;;3.42;0.80;;;9.60;1.00;;;;;;20663176;28;20045;-40
2023/05/17 22:26:41;;;;;;;3.17;1.60;;;9.40;1.00;;;;;;20661456;28;20524;-41
2023/05/17 22:36:42;;;;;;;3.05;1.10;;;9.20;1.00;;;;;;20666350;28;20045;-41
2023/05/17 22:46:45;;;;;;;2.88;1.05;;;9.00;1.00;;;;;;20667979;28;20119;-41
2023/05/17 22:56:46;;;;;;;4.43;0.90;;;8.90;1.00;;;;;;20655953;28;20662;-41
2023/05/17 23:06:47;;;;;;;3.70;1.08;;;8.80;1.00;;;;;;20650057;28;20465;-41
2023/05/17 23:16:48;;;;;;;5.10;0.85;;;8.80;1.00;;;;;;20652897;28;20034;-41
2023/05/17 23:26:50;;;;;;;4.03;1.05;;;8.70;1.00;;;;;;20647679;28;20049;-41
2023/05/17 23:36:51;;;;;;;1.95;0.70;;;8.70;1.00;;;;;;20654243;28;20053;-41
2023/05/17 23:46:53;;;;;;;2.63;0.88;;;8.60;1.00;;;;;;20664076;28;20042;-41
2023/05/17 23:56:55;;;;;;;3.60;1.08;;;8.40;1.00;;;;;;20652253;28;20046;-40
